sensor_id;sensor_type;location;lat;lon;timestamp;temperature;humidity
7163;DHT22;3623;47.098;15.446;2022-10-31T00:00:10;12.90;99.90
7163;DHT22;3623;47.098;15.446;2022-10-31T00:02:37;13.00;99.90
7163;DHT22;3623;47.098;15.446;2022-10-31T00:05:05;12.90;99.90
7163;DHT22;3623;47.098;15.446;2022-10-31T00:07:32;12.90;99.90
7163;DHT22;3623;47.098;15.446;2022-10-31T00:10:01;12.80;99.90
7163;DHT22;3623;47.098;15.446;2022-10-31T00:12:28;12.80;99.90
7163;DHT22;3623;47.098;15.446;2022-10-31T00:14:55;12.80;99.90
7163;DHT22;3623;47.098;15.446;2022-10-31T00:17:22;12.80;99.90
7163;DHT22;3623;47.098;15.446;2022-10-31T00:19:49;12.70;99.90
7163;DHT22;3623;47.098;15.446;2022-10-31T00:22:16;12.70;99.90
7163;DHT22;3623;47.098;15.446;2022-10-31T00:24:43;12.70;99.90
7163;DHT22;3623;47.098;15.446;2022-10-31T00:27:12;12.60;99.90
7163;DHT22;3623;47.098;15.446;2022-10-31T00:29:39;12.60;99.90
7163;DHT22;3623;47.098;15.446;2022-10-31T00:32:06;12.60;99.90
7163;DHT22;3623;47.098;15.446;2022-10-31T00:34:33;12.60;99.90
7163;DHT22;3623;47.098;15.446;2022-10-31T00:37:00;12.60;99.90
7163;DHT22;3623;47.098;15.446;2022-10-31T00:39:27;12.60;99.90
7163;DHT22;3623;47.098;15.446;2022-10-31T00:41:54;12.60;99.90
7163;DHT22;3623;47.098;15.446;2022-10-31T00:44:23;12.60;99.90
7163;DHT22;3623;47.098;15.446;2022-10-31T00:46:50;12.50;99.90
7163;DHT22;3623;47.098;15.446;2022-10-31T00:49:17;12.50;99.90
7163;DHT22;3623;47.098;15.446;2022-10-31T00:51:44;12.50;99.90
7163;DHT22;3623;47.098;15.446;2022-10-31T00:54:11;12.40;99.90
7163;DHT22;3623;47.098;15.446;2022-10-31T00:56:38;12.40;99.90
7163;DHT22;3623;47.098;15.446;2022-10-31T00:59:05;12.30;99.90
7163;DHT22;3623;47.098;15.446;2022-10-31T01:01:33;12.30;99.90
7163;DHT22;3623;47.098;15.446;2022-10-31T01:04:01;12.30;99.90
7163;DHT22;3623;47.098;15.446;2022-10-31T01:06:28;12.20;99.90
7163;DHT22;3623;47.098;15.446;2022-10-31T01:08:56;12.20;99.90
7163;DHT22;3623;47.098;15.446;2022-10-31T01:11:23;12.20;99.90
7163;DHT22;3623;47.098;15.446;2022-10-31T01:13:51;12.20;99.90
7163;DHT22;3623;47.098;15.446;2022-10-31T01:16:20;12.10;99.90
7163;DHT22;3623;47.098;15.446;2022-10-31T01:18:49;12.20;99.90
7163;DHT22;3623;47.098;15.446;2022-10-31T01:21:18;12.20;99.90
7163;DHT22;3623;47.098;15.446;2022-10-31T01:23:46;12.20;99.90
7163;DHT22;3623;47.098;15.446;2022-10-31T01:26:16;12.10;99.90
7163;DHT22;3623;47.098;15.446;2022-10-31T01:28:45;12.10;99.90
7163;DHT22;3623;47.098;15.446;2022-10-31T01:31:13;12.10;99.90
7163;DHT22;3623;47.098;15.446;2022-10-31T01:33:41;12.10;99.90
7163;DHT22;3623;47.098;15.446;2022-10-31T01:36:15;12.10;99.90
7163;DHT22;3623;47.098;15.446;2022-10-31T01:38:43;12.10;99.90
7163;DHT22;3623;47.098;15.446;2022-10-31T01:41:12;12.10;99.90
7163;DHT22;3623;47.098;15.446;2022-10-31T01:43:47;12.10;99.90
7163;DHT22;3623;47.098;15.446;2022-10-31T01:46:18;12.10;99.90
7163;DHT22;3623;47.098;15.446;2022-10-31T01:48:46;12.10;99.90
7163;DHT22;3623;47.098;15.446;2022-10-31T01:51:16;12.10;99.90
7163;DHT22;3623;47.098;15.446;2022-10-31T01:53:45;12.00;99.90
7163;DHT22;3623;47.098;15.446;2022-10-31T01:56:14;12.00;99.90
7163;DHT22;3623;47.098;15.446;2022-10-31T01:58:42;12.00;99.90
7163;DHT22;3623;47.098;15.446;2022-10-31T02:01:12;12.00;99.90
7163;DHT22;3623;47.098;15.446;2022-10-31T02:03:41;12.00;99.90
7163;DHT22;3623;47.098;15.446;2022-10-31T02:06:13;12.00;99.90
7163;DHT22;3623;47.098;15.446;2022-10-31T02:08:45;12.00;99.90
7163;DHT22;3623;47.098;15.446;2022-10-31T02:11:13;11.90;99.90
7163;DHT22;3623;47.098;15.446;2022-10-31T02:13:41;12.10;99.90
7163;DHT22;3623;47.098;15.446;2022-10-31T02:16:09;12.00;99.90
7163;DHT22;3623;47.098;15.446;2022-10-31T02:18:37;12.00;99.90
7163;DHT22;3623;47.098;15.446;2022-10-31T02:21:10;12.00;99.90
7163;DHT22;3623;47.098;15.446;2022-10-31T02:32:51;12.10;99.90
7163;DHT22;3623;47.098;15.446;2022-10-31T02:35:33;12.20;99.90
7163;DHT22;3623;47.098;15.446;2022-10-31T02:38:07;12.10;99.90
7163;DHT22;3623;47.098;15.446;2022-10-31T02:40:42;12.00;99.90
7163;DHT22;3623;47.098;15.446;2022-10-31T02:43:19;12.00;99.90
7163;DHT22;3623;47.098;15.446;2022-10-31T02:45:56;12.00;99.90
7163;DHT22;3623;47.098;15.446;2022-10-31T02:48:27;12.10;99.90
7163;DHT22;3623;47.098;15.446;2022-10-31T02:50:57;12.00;99.90
7163;DHT22;3623;47.098;15.446;2022-10-31T02:53:25;12.00;99.90
7163;DHT22;3623;47.098;15.446;2022-10-31T02:55:58;12.00;99.90
7163;DHT22;3623;47.098;15.446;2022-10-31T02:58:31;11.90;99.90
7163;DHT22;3623;47.098;15.446;2022-10-31T03:01:31;12.00;99.90
7163;DHT22;3623;47.098;15.446;2022-10-31T03:04:16;12.00;99.90
7163;DHT22;3623;47.098;15.446;2022-10-31T03:06:52;11.90;99.90
7163;DHT22;3623;47.098;15.446;2022-10-31T03:09:24;12.00;99.90
7163;DHT22;3623;47.098;15.446;2022-10-31T03:11:58;11.90;99.90
7163;DHT22;3623;47.098;15.446;2022-10-31T03:14:33;11.90;99.90
7163;DHT22;3623;47.098;15.446;2022-10-31T03:17:07;11.90;99.90
7163;DHT22;3623;47.098;15.446;2022-10-31T03:19:40;11.90;99.90
7163;DHT22;3623;47.098;15.446;2022-10-31T03:22:16;11.90;99.90
7163;DHT22;3623;47.098;15.446;2022-10-31T03:24:44;11.90;99.90
7163;DHT22;3623;47.098;15.446;2022-10-31T03:27:14;11.90;99.90
7163;DHT22;3623;47.098;15.446;2022-10-31T03:29:42;11.80;99.90
7163;DHT22;3623;47.098;15.446;2022-10-31T03:32:13;11.90;99.90
7163;DHT22;3623;47.098;15.446;2022-10-31T03:34:44;11.90;99.90
7163;DHT22;3623;47.098;15.446;2022-10-31T03:37:14;11.80;99.90
7163;DHT22;3623;47.098;15.446;2022-10-31T03:39:44;11.80;99.90
7163;DHT22;3623;47.098;15.446;2022-10-31T03:42:16;11.80;99.90
7163;DHT22;3623;47.098;15.446;2022-10-31T03:44:48;11.70;99.90
7163;DHT22;3623;47.098;15.446;2022-10-31T03:47:17;11.70;99.90
7163;DHT22;3623;47.098;15.446;2022-10-31T03:49:45;11.70;99.90
7163;DHT22;3623;47.098;15.446;2022-10-31T03:52:19;11.70;99.90
7163;DHT22;3623;47.098;15.446;2022-10-31T03:54:53;11.70;99.90
7163;DHT22;3623;47.098;15.446;2022-10-31T03:57:24;11.70;99.90
7163;DHT22;3623;47.098;15.446;2022-10-31T03:59:54;11.70;99.90
7163;DHT22;3623;47.098;15.446;2022-10-31T04:02:27;11.60;99.90
7163;DHT22;3623;47.098;15.446;2022-10-31T04:04:57;11.60;99.90
7163;DHT22;3623;47.098;15.446;2022-10-31T04:07:28;11.50;99.90
7163;DHT22;3623;47.098;15.446;2022-10-31T04:09:57;11.40;99.90
7163;DHT22;3623;47.098;15.446;2022-10-31T04:12:27;11.40;99.90
7163;DHT22;3623;47.098;15.446;2022-10-31T04:14:56;11.40;99.90
7163;DHT22;3623;47.098;15.446;2022-10-31T04:17:29;11.40;99.90
7163;DHT22;3623;47.098;15.446;2022-10-31T04:19:59;11.30;99.90
7163;DHT22;3623;47.098;15.446;2022-10-31T04:22:26;11.20;99.90
7163;DHT22;3623;47.098;15.446;2022-10-31T04:24:53;11.20;99.90
7163;DHT22;3623;47.098;15.446;2022-10-31T04:27:20;11.30;99.90
7163;DHT22;3623;47.098;15.446;2022-10-31T04:29:47;11.30;99.90
7163;DHT22;3623;47.098;15.446;2022-10-31T04:32:14;11.40;99.90
7163;DHT22;3623;47.098;15.446;2022-10-31T04:34:41;11.40;99.90
7163;DHT22;3623;47.098;15.446;2022-10-31T04:37:10;11.40;99.90
7163;DHT22;3623;47.098;15.446;2022-10-31T04:39:37;11.40;99.90
7163;DHT22;3623;47.098;15.446;2022-10-31T04:42:04;11.40;99.90
7163;DHT22;3623;47.098;15.446;2022-10-31T04:44:31;11.40;99.90
7163;DHT22;3623;47.098;15.446;2022-10-31T04:46:58;11.40;99.90
7163;DHT22;3623;47.098;15.446;2022-10-31T04:49:25;11.40;99.90
7163;DHT22;3623;47.098;15.446;2022-10-31T04:51:52;11.30;99.90
7163;DHT22;3623;47.098;15.446;2022-10-31T04:54:20;11.30;99.90
7163;DHT22;3623;47.098;15.446;2022-10-31T04:56:47;11.20;99.90
7163;DHT22;3623;47.098;15.446;2022-10-31T04:59:14;11.20;99.90
7163;DHT22;3623;47.098;15.446;2022-10-31T05:01:41;11.20;99.90
7163;DHT22;3623;47.098;15.446;2022-10-31T05:04:08;11.20;99.90
7163;DHT22;3623;47.098;15.446;2022-10-31T05:06:35;11.10;99.90
7163;DHT22;3623;47.098;15.446;2022-10-31T05:09:03;11.20;99.90
7163;DHT22;3623;47.098;15.446;2022-10-31T05:11:31;11.20;99.90
7163;DHT22;3623;47.098;15.446;2022-10-31T05:13:58;11.30;99.90
7163;DHT22;3623;47.098;15.446;2022-10-31T05:16:25;11.20;99.90
7163;DHT22;3623;47.098;15.446;2022-10-31T05:18:52;11.20;99.90
7163;DHT22;3623;47.098;15.446;2022-10-31T05:21:19;11.20;99.90
7163;DHT22;3623;47.098;15.446;2022-10-31T05:23:46;11.30;99.90
7163;DHT22;3623;47.098;15.446;2022-10-31T05:26:13;11.30;99.90
7163;DHT22;3623;47.098;15.446;2022-10-31T05:28:42;11.30;99.90
7163;DHT22;3623;47.098;15.446;2022-10-31T05:31:09;11.30;99.90
7163;DHT22;3623;47.098;15.446;2022-10-31T05:33:36;11.30;99.90
7163;DHT22;3623;47.098;15.446;2022-10-31T05:36:03;11.30;99.90
7163;DHT22;3623;47.098;15.446;2022-10-31T05:38:30;11.30;99.90
7163;DHT22;3623;47.098;15.446;2022-10-31T05:40:57;11.30;99.90
7163;DHT22;3623;47.098;15.446;2022-10-31T05:43:26;11.30;99.90
7163;DHT22;3623;47.098;15.446;2022-10-31T05:45:55;11.40;99.90
7163;DHT22;3623;47.098;15.446;2022-10-31T05:48:22;11.40;99.90
7163;DHT22;3623;47.098;15.446;2022-10-31T05:50:50;11.40;99.90
7163;DHT22;3623;47.098;15.446;2022-10-31T05:53:17;11.40;99.90
7163;DHT22;3623;47.098;15.446;2022-10-31T05:55:44;11.40;99.90
7163;DHT22;3623;47.098;15.446;2022-10-31T05:58:11;11.30;99.90
7163;DHT22;3623;47.098;15.446;2022-10-31T06:00:39;11.30;99.90
7163;DHT22;3623;47.098;15.446;2022-10-31T06:03:10;11.40;99.90
7163;DHT22;3623;47.098;15.446;2022-10-31T06:05:37;11.40;99.90
7163;DHT22;3623;47.098;15.446;2022-10-31T06:08:05;11.50;99.90
7163;DHT22;3623;47.098;15.446;2022-10-31T06:10:32;11.40;99.90
7163;DHT22;3623;47.098;15.446;2022-10-31T06:12:59;11.50;99.90
7163;DHT22;3623;47.098;15.446;2022-10-31T06:15:26;11.50;99.90
7163;DHT22;3623;47.098;15.446;2022-10-31T06:18:00;11.50;99.90
7163;DHT22;3623;47.098;15.446;2022-10-31T06:20:29;11.60;99.90
7163;DHT22;3623;47.098;15.446;2022-10-31T06:22:56;11.60;99.90
7163;DHT22;3623;47.098;15.446;2022-10-31T06:25:25;11.70;99.90
7163;DHT22;3623;47.098;15.446;2022-10-31T06:27:52;11.70;99.90
7163;DHT22;3623;47.098;15.446;2022-10-31T06:30:19;11.70;99.90
7163;DHT22;3623;47.098;15.446;2022-10-31T06:32:46;11.70;99.90
7163;DHT22;3623;47.098;15.446;2022-10-31T06:35:13;11.70;99.90
7163;DHT22;3623;47.098;15.446;2022-10-31T06:37:41;11.90;99.90
7163;DHT22;3623;47.098;15.446;2022-10-31T06:40:10;11.90;99.90
7163;DHT22;3623;47.098;15.446;2022-10-31T06:42:37;11.90;99.90
7163;DHT22;3623;47.098;15.446;2022-10-31T06:45:04;11.90;99.90
7163;DHT22;3623;47.098;15.446;2022-10-31T06:47:31;12.00;99.90
7163;DHT22;3623;47.098;15.446;2022-10-31T06:49:58;12.00;99.90
7163;DHT22;3623;47.098;15.446;2022-10-31T06:52:25;12.00;99.90
7163;DHT22;3623;47.098;15.446;2022-10-31T06:54:54;12.00;99.90
7163;DHT22;3623;47.098;15.446;2022-10-31T06:57:21;12.00;99.90
7163;DHT22;3623;47.098;15.446;2022-10-31T06:59:48;12.00;99.90
7163;DHT22;3623;47.098;15.446;2022-10-31T07:02:15;12.10;99.90
7163;DHT22;3623;47.098;15.446;2022-10-31T07:04:42;12.10;99.90
7163;DHT22;3623;47.098;15.446;2022-10-31T07:07:09;12.10;99.90
7163;DHT22;3623;47.098;15.446;2022-10-31T07:09:36;12.20;99.90
7163;DHT22;3623;47.098;15.446;2022-10-31T07:12:05;12.20;99.90
7163;DHT22;3623;47.098;15.446;2022-10-31T07:14:32;12.30;99.90
7163;DHT22;3623;47.098;15.446;2022-10-31T07:16:59;12.30;99.90
7163;DHT22;3623;47.098;15.446;2022-10-31T07:19:26;12.30;99.90
7163;DHT22;3623;47.098;15.446;2022-10-31T07:21:53;12.40;99.90
7163;DHT22;3623;47.098;15.446;2022-10-31T07:24:20;12.50;99.90
7163;DHT22;3623;47.098;15.446;2022-10-31T07:26:47;12.50;99.90
7163;DHT22;3623;47.098;15.446;2022-10-31T07:29:16;12.60;99.90
7163;DHT22;3623;47.098;15.446;2022-10-31T07:31:44;12.60;99.90
7163;DHT22;3623;47.098;15.446;2022-10-31T07:34:12;12.70;99.90
7163;DHT22;3623;47.098;15.446;2022-10-31T07:36:39;12.80;99.90
7163;DHT22;3623;47.098;15.446;2022-10-31T07:39:06;12.90;99.90
7163;DHT22;3623;47.098;15.446;2022-10-31T07:41:33;13.00;99.90
7163;DHT22;3623;47.098;15.446;2022-10-31T07:44:00;13.10;99.90
7163;DHT22;3623;47.098;15.446;2022-10-31T07:46:28;13.10;99.90
7163;DHT22;3623;47.098;15.446;2022-10-31T07:48:55;13.20;99.90
7163;DHT22;3623;47.098;15.446;2022-10-31T07:51:22;13.20;99.90
7163;DHT22;3623;47.098;15.446;2022-10-31T07:53:50;13.30;99.90
7163;DHT22;3623;47.098;15.446;2022-10-31T07:56:17;13.40;99.90
7163;DHT22;3623;47.098;15.446;2022-10-31T07:58:44;13.50;99.90
7163;DHT22;3623;47.098;15.446;2022-10-31T08:01:11;13.60;99.90
7163;DHT22;3623;47.098;15.446;2022-10-31T08:03:39;13.70;99.90
7163;DHT22;3623;47.098;15.446;2022-10-31T08:06:06;13.80;99.90
7163;DHT22;3623;47.098;15.446;2022-10-31T08:08:33;13.90;99.90
7163;DHT22;3623;47.098;15.446;2022-10-31T08:11:01;14.00;99.90
7163;DHT22;3623;47.098;15.446;2022-10-31T08:13:28;14.10;99.90
7163;DHT22;3623;47.098;15.446;2022-10-31T08:15:55;14.30;99.90
7163;DHT22;3623;47.098;15.446;2022-10-31T08:18:29;14.30;99.90
7163;DHT22;3623;47.098;15.446;2022-10-31T08:20:57;14.40;99.90
7163;DHT22;3623;47.098;15.446;2022-10-31T08:23:25;14.50;99.90
7163;DHT22;3623;47.098;15.446;2022-10-31T08:25:52;14.60;99.90
7163;DHT22;3623;47.098;15.446;2022-10-31T08:28:19;14.70;99.90
7163;DHT22;3623;47.098;15.446;2022-10-31T08:30:46;14.80;99.90
7163;DHT22;3623;47.098;15.446;2022-10-31T08:33:15;14.90;99.90
7163;DHT22;3623;47.098;15.446;2022-10-31T08:35:42;15.00;99.90
7163;DHT22;3623;47.098;15.446;2022-10-31T08:38:12;15.10;99.90
7163;DHT22;3623;47.098;15.446;2022-10-31T08:40:40;15.10;99.90
7163;DHT22;3623;47.098;15.446;2022-10-31T08:43:14;15.20;99.90
7163;DHT22;3623;47.098;15.446;2022-10-31T08:45:42;15.30;99.90
7163;DHT22;3623;47.098;15.446;2022-10-31T08:48:10;15.30;99.90
7163;DHT22;3623;47.098;15.446;2022-10-31T08:50:38;15.50;99.90
7163;DHT22;3623;47.098;15.446;2022-10-31T08:53:07;15.70;99.90
7163;DHT22;3623;47.098;15.446;2022-10-31T08:55:36;16.10;99.90
7163;DHT22;3623;47.098;15.446;2022-10-31T08:58:05;16.10;99.90
7163;DHT22;3623;47.098;15.446;2022-10-31T09:00:33;16.10;99.90
7163;DHT22;3623;47.098;15.446;2022-10-31T09:03:01;16.10;99.90
7163;DHT22;3623;47.098;15.446;2022-10-31T09:05:29;16.20;99.90
7163;DHT22;3623;47.098;15.446;2022-10-31T09:07:56;16.20;99.90
7163;DHT22;3623;47.098;15.446;2022-10-31T09:10:23;16.30;99.90
7163;DHT22;3623;47.098;15.446;2022-10-31T09:12:56;16.30;99.90
7163;DHT22;3623;47.098;15.446;2022-10-31T09:15:23;16.40;99.90
7163;DHT22;3623;47.098;15.446;2022-10-31T09:17:51;16.60;99.90
7163;DHT22;3623;47.098;15.446;2022-10-31T09:20:18;16.50;99.90
7163;DHT22;3623;47.098;15.446;2022-10-31T09:22:45;16.50;99.90
7163;DHT22;3623;47.098;15.446;2022-10-31T09:25:13;16.60;99.90
7163;DHT22;3623;47.098;15.446;2022-10-31T09:27:40;16.70;99.90
7163;DHT22;3623;47.098;15.446;2022-10-31T09:30:10;16.70;99.90
7163;DHT22;3623;47.098;15.446;2022-10-31T09:32:37;16.60;99.90
7163;DHT22;3623;47.098;15.446;2022-10-31T09:35:05;16.80;99.90
7163;DHT22;3623;47.098;15.446;2022-10-31T09:37:33;16.90;99.90
7163;DHT22;3623;47.098;15.446;2022-10-31T09:40:00;17.00;99.90
7163;DHT22;3623;47.098;15.446;2022-10-31T09:42:47;17.00;99.90
7163;DHT22;3623;47.098;15.446;2022-10-31T09:45:22;17.30;99.90
7163;DHT22;3623;47.098;15.446;2022-10-31T09:48:03;17.40;99.90
7163;DHT22;3623;47.098;15.446;2022-10-31T09:50:38;17.40;99.90
7163;DHT22;3623;47.098;15.446;2022-10-31T09:53:24;17.50;99.90
7163;DHT22;3623;47.098;15.446;2022-10-31T09:55:53;17.60;99.90
7163;DHT22;3623;47.098;15.446;2022-10-31T09:58:24;17.60;99.90
7163;DHT22;3623;47.098;15.446;2022-10-31T10:00:58;17.70;99.90
7163;DHT22;3623;47.098;15.446;2022-10-31T10:03:34;17.80;99.90
7163;DHT22;3623;47.098;15.446;2022-10-31T10:06:09;17.90;99.90
7163;DHT22;3623;47.098;15.446;2022-10-31T10:08:38;17.90;99.90
7163;DHT22;3623;47.098;15.446;2022-10-31T10:11:22;17.90;99.90
7163;DHT22;3623;47.098;15.446;2022-10-31T10:14:10;17.90;99.90
7163;DHT22;3623;47.098;15.446;2022-10-31T10:16:50;18.00;99.90
7163;DHT22;3623;47.098;15.446;2022-10-31T10:19:34;18.20;99.90
7163;DHT22;3623;47.098;15.446;2022-10-31T10:22:09;18.40;99.90
7163;DHT22;3623;47.098;15.446;2022-10-31T10:24:51;19.00;99.90
7163;DHT22;3623;47.098;15.446;2022-10-31T10:27:26;19.60;99.90
7163;DHT22;3623;47.098;15.446;2022-10-31T10:30:00;20.40;99.90
7163;DHT22;3623;47.098;15.446;2022-10-31T10:32:41;21.30;99.90
7163;DHT22;3623;47.098;15.446;2022-10-31T10:35:19;21.80;99.90
7163;DHT22;3623;47.098;15.446;2022-10-31T10:37:49;22.10;99.90
7163;DHT22;3623;47.098;15.446;2022-10-31T10:40:18;22.10;99.90
7163;DHT22;3623;47.098;15.446;2022-10-31T10:42:55;23.10;99.90
7163;DHT22;3623;47.098;15.446;2022-10-31T10:45:40;23.10;99.90
7163;DHT22;3623;47.098;15.446;2022-10-31T10:48:32;23.30;99.90
7163;DHT22;3623;47.098;15.446;2022-10-31T10:51:03;23.50;99.90
7163;DHT22;3623;47.098;15.446;2022-10-31T10:53:43;23.60;99.90
7163;DHT22;3623;47.098;15.446;2022-10-31T10:56:40;24.20;99.90
7163;DHT22;3623;47.098;15.446;2022-10-31T10:59:11;24.60;99.90
7163;DHT22;3623;47.098;15.446;2022-10-31T11:01:40;24.70;99.90
7163;DHT22;3623;47.098;15.446;2022-10-31T11:04:27;25.10;99.90
7163;DHT22;3623;47.098;15.446;2022-10-31T11:06:59;25.50;99.90
7163;DHT22;3623;47.098;15.446;2022-10-31T11:09:26;25.70;99.90
7163;DHT22;3623;47.098;15.446;2022-10-31T11:11:54;25.30;99.90
7163;DHT22;3623;47.098;15.446;2022-10-31T11:14:23;25.50;99.90
7163;DHT22;3623;47.098;15.446;2022-10-31T11:16:53;26.10;99.90
7163;DHT22;3623;47.098;15.446;2022-10-31T11:19:24;26.40;99.90
7163;DHT22;3623;47.098;15.446;2022-10-31T11:21:52;26.70;99.90
7163;DHT22;3623;47.098;15.446;2022-10-31T11:24:20;27.10;99.90
7163;DHT22;3623;47.098;15.446;2022-10-31T11:26:49;27.20;99.90
7163;DHT22;3623;47.098;15.446;2022-10-31T11:29:20;27.90;99.90
7163;DHT22;3623;47.098;15.446;2022-10-31T11:31:51;28.20;99.90
7163;DHT22;3623;47.098;15.446;2022-10-31T11:34:29;28.30;99.90
7163;DHT22;3623;47.098;15.446;2022-10-31T11:37:03;27.80;99.90
7163;DHT22;3623;47.098;15.446;2022-10-31T11:39:30;27.90;99.90
7163;DHT22;3623;47.098;15.446;2022-10-31T11:42:00;28.40;99.90
7163;DHT22;3623;47.098;15.446;2022-10-31T11:44:30;27.30;99.90
7163;DHT22;3623;47.098;15.446;2022-10-31T11:46:59;27.90;99.90
7163;DHT22;3623;47.098;15.446;2022-10-31T11:49:32;28.20;99.90
7163;DHT22;3623;47.098;15.446;2022-10-31T11:52:04;28.50;99.90
7163;DHT22;3623;47.098;15.446;2022-10-31T11:54:44;28.90;99.90
7163;DHT22;3623;47.098;15.446;2022-10-31T11:57:26;28.80;99.90
7163;DHT22;3623;47.098;15.446;2022-10-31T11:59:55;28.70;99.70
7163;DHT22;3623;47.098;15.446;2022-10-31T12:02:23;28.70;99.90
7163;DHT22;3623;47.098;15.446;2022-10-31T12:04:59;29.30;99.10
7163;DHT22;3623;47.098;15.446;2022-10-31T12:07:29;29.20;99.90
7163;DHT22;3623;47.098;15.446;2022-10-31T12:09:56;29.10;99.90
7163;DHT22;3623;47.098;15.446;2022-10-31T12:12:40;29.90;98.80
7163;DHT22;3623;47.098;15.446;2022-10-31T12:15:25;29.90;97.30
7163;DHT22;3623;47.098;15.446;2022-10-31T12:17:57;30.50;96.10
7163;DHT22;3623;47.098;15.446;2022-10-31T12:20:37;30.10;96.70
7163;DHT22;3623;47.098;15.446;2022-10-31T12:23:17;29.70;97.10
7163;DHT22;3623;47.098;15.446;2022-10-31T12:25:50;30.10;96.50
7163;DHT22;3623;47.098;15.446;2022-10-31T12:28:48;29.70;95.90
7163;DHT22;3623;47.098;15.446;2022-10-31T12:31:33;29.90;95.90
7163;DHT22;3623;47.098;15.446;2022-10-31T12:34:23;30.10;96.00
7163;DHT22;3623;47.098;15.446;2022-10-31T12:37:00;30.00;95.50
7163;DHT22;3623;47.098;15.446;2022-10-31T12:39:38;30.20;95.50
7163;DHT22;3623;47.098;15.446;2022-10-31T12:42:16;29.80;95.80
7163;DHT22;3623;47.098;15.446;2022-10-31T12:44:59;29.70;96.20
7163;DHT22;3623;47.098;15.446;2022-10-31T12:47:50;29.70;95.40
7163;DHT22;3623;47.098;15.446;2022-10-31T12:50:28;30.10;95.20
7163;DHT22;3623;47.098;15.446;2022-10-31T12:53:14;29.70;95.60
7163;DHT22;3623;47.098;15.446;2022-10-31T12:55:55;30.10;94.90
7163;DHT22;3623;47.098;15.446;2022-10-31T12:58:28;29.60;95.30
7163;DHT22;3623;47.098;15.446;2022-10-31T13:01:05;29.20;95.50
7163;DHT22;3623;47.098;15.446;2022-10-31T13:03:40;28.50;95.80
7163;DHT22;3623;47.098;15.446;2022-10-31T13:06:17;27.40;96.70
7163;DHT22;3623;47.098;15.446;2022-10-31T13:08:50;26.40;97.70
7163;DHT22;3623;47.098;15.446;2022-10-31T13:11:22;25.60;98.50
7163;DHT22;3623;47.098;15.446;2022-10-31T13:13:57;24.80;99.20
7163;DHT22;3623;47.098;15.446;2022-10-31T13:16:30;24.40;99.90
7163;DHT22;3623;47.098;15.446;2022-10-31T13:19:03;23.80;99.90
7163;DHT22;3623;47.098;15.446;2022-10-31T13:21:36;23.20;99.90
7163;DHT22;3623;47.098;15.446;2022-10-31T13:24:12;22.90;99.90
7163;DHT22;3623;47.098;15.446;2022-10-31T13:26:46;22.50;99.90
7163;DHT22;3623;47.098;15.446;2022-10-31T13:29:20;21.90;99.90
7163;DHT22;3623;47.098;15.446;2022-10-31T13:31:48;21.70;99.90
7163;DHT22;3623;47.098;15.446;2022-10-31T13:34:24;21.50;99.90
7163;DHT22;3623;47.098;15.446;2022-10-31T13:37:02;21.30;99.90
7163;DHT22;3623;47.098;15.446;2022-10-31T13:39:44;21.00;99.90
7163;DHT22;3623;47.098;15.446;2022-10-31T13:42:18;20.90;99.90
7163;DHT22;3623;47.098;15.446;2022-10-31T13:44:46;20.70;99.90
7163;DHT22;3623;47.098;15.446;2022-10-31T13:47:26;20.60;99.90
7163;DHT22;3623;47.098;15.446;2022-10-31T13:50:05;20.40;99.90
7163;DHT22;3623;47.098;15.446;2022-10-31T13:52:32;20.40;99.90
7163;DHT22;3623;47.098;15.446;2022-10-31T13:55:00;20.40;99.90
7163;DHT22;3623;47.098;15.446;2022-10-31T13:57:31;20.30;99.90
7163;DHT22;3623;47.098;15.446;2022-10-31T14:00:05;20.20;99.90
7163;DHT22;3623;47.098;15.446;2022-10-31T14:02:34;20.00;99.90
7163;DHT22;3623;47.098;15.446;2022-10-31T14:05:05;20.00;99.90
7163;DHT22;3623;47.098;15.446;2022-10-31T14:07:33;19.90;99.90
7163;DHT22;3623;47.098;15.446;2022-10-31T14:10:05;19.70;99.90
7163;DHT22;3623;47.098;15.446;2022-10-31T14:12:35;19.70;99.90
7163;DHT22;3623;47.098;15.446;2022-10-31T14:15:19;19.60;99.90
7163;DHT22;3623;47.098;15.446;2022-10-31T14:17:48;19.60;99.90
7163;DHT22;3623;47.098;15.446;2022-10-31T14:20:30;19.60;99.90
7163;DHT22;3623;47.098;15.446;2022-10-31T14:22:57;19.50;99.90
7163;DHT22;3623;47.098;15.446;2022-10-31T14:25:28;19.40;99.90
7163;DHT22;3623;47.098;15.446;2022-10-31T14:27:56;19.30;99.90
7163;DHT22;3623;47.098;15.446;2022-10-31T14:30:26;19.10;99.90
7163;DHT22;3623;47.098;15.446;2022-10-31T14:32:56;18.90;99.90
7163;DHT22;3623;47.098;15.446;2022-10-31T14:35:28;18.80;99.90
7163;DHT22;3623;47.098;15.446;2022-10-31T14:38:12;18.70;99.90
7163;DHT22;3623;47.098;15.446;2022-10-31T14:40:53;18.70;99.90
7163;DHT22;3623;47.098;15.446;2022-10-31T14:43:41;18.60;99.90
7163;DHT22;3623;47.098;15.446;2022-10-31T14:46:16;18.50;99.90
7163;DHT22;3623;47.098;15.446;2022-10-31T14:49:02;18.40;99.90
7163;DHT22;3623;47.098;15.446;2022-10-31T14:51:36;18.20;99.90
7163;DHT22;3623;47.098;15.446;2022-10-31T14:54:05;18.10;99.90
7163;DHT22;3623;47.098;15.446;2022-10-31T14:56:37;18.10;99.90
7163;DHT22;3623;47.098;15.446;2022-10-31T14:59:08;18.10;99.90
7163;DHT22;3623;47.098;15.446;2022-10-31T15:01:38;18.00;99.90
7163;DHT22;3623;47.098;15.446;2022-10-31T15:04:12;17.90;99.90
7163;DHT22;3623;47.098;15.446;2022-10-31T15:06:43;17.80;99.90
7163;DHT22;3623;47.098;15.446;2022-10-31T15:09:21;17.70;99.90
7163;DHT22;3623;47.098;15.446;2022-10-31T15:11:51;17.70;99.90
7163;DHT22;3623;47.098;15.446;2022-10-31T15:14:24;17.60;99.90
7163;DHT22;3623;47.098;15.446;2022-10-31T15:16:52;17.40;99.90
7163;DHT22;3623;47.098;15.446;2022-10-31T15:19:23;17.30;99.90
7163;DHT22;3623;47.098;15.446;2022-10-31T15:21:51;17.20;99.90
7163;DHT22;3623;47.098;15.446;2022-10-31T15:24:19;17.10;99.90
7163;DHT22;3623;47.098;15.446;2022-10-31T15:26:50;17.00;99.90
7163;DHT22;3623;47.098;15.446;2022-10-31T15:29:19;17.00;99.90
7163;DHT22;3623;47.098;15.446;2022-10-31T15:31:51;16.80;99.90
7163;DHT22;3623;47.098;15.446;2022-10-31T15:34:22;16.80;99.90
7163;DHT22;3623;47.098;15.446;2022-10-31T15:36:52;16.70;99.90
7163;DHT22;3623;47.098;15.446;2022-10-31T15:39:19;16.60;99.90
7163;DHT22;3623;47.098;15.446;2022-10-31T15:41:51;16.50;99.90
7163;DHT22;3623;47.098;15.446;2022-10-31T15:44:22;16.30;99.90
7163;DHT22;3623;47.098;15.446;2022-10-31T15:47:01;16.20;99.90
7163;DHT22;3623;47.098;15.446;2022-10-31T15:49:34;16.10;99.90
7163;DHT22;3623;47.098;15.446;2022-10-31T15:52:14;16.00;99.90
7163;DHT22;3623;47.098;15.446;2022-10-31T15:54:47;16.00;99.90
7163;DHT22;3623;47.098;15.446;2022-10-31T15:57:16;15.90;99.90
7163;DHT22;3623;47.098;15.446;2022-10-31T15:59:47;15.80;99.90
7163;DHT22;3623;47.098;15.446;2022-10-31T16:02:18;15.70;99.90
7163;DHT22;3623;47.098;15.446;2022-10-31T16:04:52;15.60;99.90
7163;DHT22;3623;47.098;15.446;2022-10-31T16:07:20;15.50;99.90
7163;DHT22;3623;47.098;15.446;2022-10-31T16:09:55;15.30;99.90
7163;DHT22;3623;47.098;15.446;2022-10-31T16:12:25;15.20;99.90
7163;DHT22;3623;47.098;15.446;2022-10-31T16:14:55;15.20;99.90
7163;DHT22;3623;47.098;15.446;2022-10-31T16:17:24;15.00;99.90